createdAt,value
2023-01-25T00:00:15.261Z,102823.41
2023-01-25T00:05:18.090Z,102844.47
2023-01-25T00:10:17.230Z,102850.25
2023-01-25T00:15:16.749Z,102878.28
2023-01-25T00:20:14.818Z,102860.38
2023-01-25T00:25:13.680Z,102855.78
2023-01-25T00:30:12.417Z,102888.16
2023-01-25T00:35:15.029Z,102841.41
2023-01-25T00:40:14.831Z,102842.50
2023-01-25T00:45:15.478Z,102861.19
2023-01-25T00:50:17.342Z,102866.25
2023-01-25T00:55:17.519Z,102859.44
2023-01-25T01:00:17.499Z,102863.78
2023-01-25T01:05:18.079Z,102851.06
2023-01-25T01:10:19.939Z,102828.28
2023-01-25T01:15:22.247Z,102863.50
2023-01-25T01:20:20.368Z,102843.88
2023-01-25T01:25:20.703Z,102856.25
2023-01-25T01:30:19.565Z,102865.84
2023-01-25T01:35:20.686Z,102856.03
2023-01-25T01:40:22.813Z,102845.41
2023-01-25T01:45:43.181Z,102876.69
2023-01-25T01:50:48.468Z,102837.84
2023-01-25T01:55:48.477Z,102824.88
2023-01-25T02:00:48.916Z,102860.94
2023-01-25T02:05:58.413Z,102856.38
2023-01-25T02:10:59.426Z,102828.22
2023-01-25T02:15:59.360Z,102812.38
2023-01-25T02:20:58.660Z,102802.00
2023-01-25T02:26:00.663Z,102794.03
2023-01-25T02:31:02.764Z,102831.50
2023-01-25T02:36:30.712Z,102803.16
2023-01-25T02:41:36.168Z,102835.41
2023-01-25T02:46:37.585Z,102809.06
2023-01-25T02:51:40.019Z,102783.47
2023-01-25T02:56:41.477Z,102786.94
2023-01-25T03:01:46.205Z,102814.84
2023-01-25T03:06:46.305Z,102827.06
2023-01-25T03:11:48.404Z,102840.91
2023-01-25T03:16:49.128Z,102841.63
2023-01-25T03:21:52.476Z,102788.84
2023-01-25T03:27:12.240Z,102803.63
2023-01-25T03:32:30.377Z,102794.69
2023-01-25T03:37:36.728Z,102784.38
2023-01-25T03:42:36.516Z,102780.22
2023-01-25T03:47:35.062Z,102831.66
2023-01-25T03:52:44.163Z,102791.22
2023-01-25T03:57:49.201Z,102820.22
2023-01-25T04:02:53.032Z,102789.16
2023-01-25T04:07:55.318Z,102813.34
2023-01-25T04:13:02.228Z,102799.13
2023-01-25T04:18:00.972Z,102784.72
2023-01-25T04:23:01.389Z,102788.28
2023-01-25T04:28:12.047Z,102780.09
2023-01-25T04:33:22.501Z,102829.78
2023-01-25T04:38:23.409Z,102817.22
2023-01-25T04:43:27.448Z,102826.81
2023-01-25T04:48:30.957Z,102835.34
2023-01-25T04:53:43.654Z,102854.03
2023-01-25T04:58:44.150Z,102811.69
2023-01-25T05:03:44.655Z,102840.09
2023-01-25T05:08:53.207Z,102809.44
2023-01-25T05:13:54.045Z,102800.88
2023-01-25T05:19:01.424Z,102828.06
2023-01-25T05:24:12.572Z,102843.50
2023-01-25T05:29:11.902Z,102814.97
2023-01-25T05:34:22.976Z,102802.41
2023-01-25T05:39:24.605Z,102846.63
2023-01-25T05:44:28.862Z,102827.00
2023-01-25T05:49:27.837Z,102807.50
2023-01-25T05:54:26.987Z,102803.53
2023-01-25T05:59:32.691Z,102837.78
2023-01-25T06:04:32.619Z,102852.63
2023-01-25T06:09:31.290Z,102824.25
2023-01-25T06:14:33.014Z,102859.13
2023-01-25T06:19:33.003Z,102864.25
2023-01-25T06:24:53.582Z,102827.16
2023-01-25T06:29:52.243Z,102838.03
2023-01-25T06:34:51.180Z,102858.03
2023-01-25T06:52:44.027Z,102867.59
2023-01-25T06:57:50.267Z,102841.41
2023-01-25T07:02:51.099Z,102856.75
2023-01-25T07:07:50.480Z,102851.81
2023-01-25T07:12:52.913Z,102852.88
2023-01-25T07:18:15.721Z,102833.78
2023-01-25T07:23:15.468Z,102873.31
2023-01-25T07:28:15.570Z,102847.81
2023-01-25T07:33:16.513Z,102873.69
2023-01-25T07:38:18.237Z,102864.19
2023-01-25T07:43:17.521Z,102867.06
2023-01-25T07:48:17.368Z,102853.84
2023-01-25T07:53:17.504Z,102859.00
2023-01-25T07:58:17.567Z,102844.06
2023-01-25T08:03:16.085Z,102851.25
2023-01-25T08:08:15.039Z,102839.06
2023-01-25T08:13:20.265Z,102875.53
2023-01-25T08:18:18.892Z,102882.13
2023-01-25T08:23:22.831Z,102848.06
2023-01-25T08:28:22.992Z,102862.13
2023-01-25T08:33:23.587Z,102880.25
2023-01-25T08:38:24.132Z,102838.59
2023-01-25T08:43:22.591Z,102843.75
2023-01-25T08:48:21.832Z,102825.84
2023-01-25T08:53:20.629Z,102846.25
2023-01-25T08:58:21.875Z,102861.63
2023-01-25T09:03:20.627Z,102827.41
2023-01-25T09:08:20.421Z,102859.97
2023-01-25T09:13:19.583Z,102806.78
2023-01-25T09:18:18.668Z,102840.09
2023-01-25T09:23:17.057Z,102814.00
2023-01-25T09:28:15.802Z,102806.78
2023-01-25T09:33:14.972Z,102798.94
2023-01-25T09:39:08.883Z,102795.25
2023-01-25T09:44:24.044Z,102809.34
2023-01-25T09:55:33.005Z,102773.88
2023-01-25T10:00:36.707Z,102769.88
2023-01-25T10:05:55.048Z,102759.19
2023-01-25T10:11:10.924Z,102768.28
2023-01-25T10:16:25.638Z,102751.34
2023-01-25T10:21:30.756Z,102772.59
2023-01-25T10:26:37.011Z,102741.09
2023-01-25T10:31:46.728Z,102744.47
2023-01-25T10:36:48.150Z,102728.81
2023-01-25T10:41:52.107Z,102717.38
2023-01-25T10:46:59.443Z,102704.19
2023-01-25T10:52:13.223Z,102708.81
2023-01-25T10:57:17.197Z,102686.41
2023-01-25T11:02:38.041Z,102698.84
2023-01-25T11:07:36.161Z,102646.66
2023-01-25T11:12:38.849Z,102645.97
2023-01-25T11:17:37.275Z,102626.44
2023-01-25T11:22:36.450Z,102618.75
2023-01-25T11:27:34.862Z,102612.88
2023-01-25T11:32:36.297Z,102617.53
2023-01-25T11:37:45.863Z,102643.41
2023-01-25T11:43:12.887Z,102635.78
2023-01-25T11:48:50.696Z,102606.97
2023-01-25T11:54:17.495Z,102622.63
2023-01-25T11:59:34.844Z,102624.28
2023-01-25T12:05:21.998Z,102575.91
2023-01-25T12:10:22.893Z,102562.88
2023-01-25T12:15:44.941Z,102612.91
2023-01-25T12:21:01.293Z,102603.22
2023-01-25T12:26:10.081Z,102577.25
2023-01-25T12:31:22.629Z,102601.28
2023-01-25T12:36:41.381Z,102594.81
2023-01-25T12:41:53.097Z,102596.31
2023-01-25T12:47:15.597Z,102548.66
2023-01-25T12:52:28.411Z,102547.16
2023-01-25T12:57:51.997Z,102557.81
2023-01-25T13:03:14.310Z,102581.09
2023-01-25T13:08:30.991Z,102543.56
2023-01-25T13:13:33.405Z,102570.25
2023-01-25T13:18:32.648Z,102583.34
2023-01-25T13:23:35.332Z,102544.69
2023-01-25T13:28:43.469Z,102573.59
2023-01-25T13:33:43.380Z,102533.78
2023-01-25T13:38:41.598Z,102569.13
2023-01-25T13:43:42.317Z,102548.94
2023-01-25T13:48:54.196Z,102550.69
2023-01-25T13:54:00.233Z,102528.69
2023-01-25T13:58:59.345Z,102528.69
2023-01-25T14:04:02.154Z,102538.00
2023-01-25T14:09:08.068Z,102519.28
2023-01-25T14:14:26.849Z,102562.63
2023-01-25T14:20:02.433Z,102554.69
2023-01-25T14:25:16.607Z,102533.19
2023-01-25T14:30:26.954Z,102524.94
2023-01-25T14:35:42.418Z,102554.41
2023-01-25T14:40:52.528Z,102520.09
2023-01-25T14:45:55.481Z,102525.06
2023-01-25T14:52:00.293Z,102509.34
2023-01-25T14:57:48.997Z,102488.25
2023-01-25T15:02:59.456Z,102479.97
2023-01-25T15:08:09.333Z,102547.47
2023-01-25T15:13:14.803Z,102550.59
2023-01-25T15:18:53.642Z,102554.09
2023-01-25T15:23:59.020Z,102523.91
2023-01-25T15:29:02.795Z,102528.78
2023-01-25T15:34:02.922Z,102549.09
2023-01-25T15:39:01.777Z,102527.00
2023-01-25T15:44:01.521Z,102546.69
2023-01-25T15:49:00.399Z,102525.72
2023-01-25T15:53:59.293Z,102525.47
2023-01-25T15:59:01.910Z,102524.63
2023-01-25T16:04:00.149Z,102530.25
2023-01-25T16:09:01.548Z,102537.56
2023-01-25T16:14:05.519Z,102545.19
2023-01-25T16:19:04.319Z,102550.38
2023-01-25T16:24:05.338Z,102507.94
2023-01-25T16:29:05.415Z,102508.91
2023-01-25T16:34:06.400Z,102518.13
2023-01-25T16:39:26.092Z,102519.75
2023-01-25T16:44:26.102Z,102505.78
2023-01-25T16:49:30.664Z,102474.75
2023-01-25T16:54:30.414Z,102518.88
2023-01-25T16:59:28.814Z,102500.38
2023-01-25T17:04:29.938Z,102521.59
2023-01-25T17:09:30.951Z,102508.63
2023-01-25T17:14:28.797Z,102471.28
2023-01-25T17:19:29.045Z,102493.31
2023-01-25T17:24:32.352Z,102471.00
2023-01-25T17:29:32.718Z,102502.88
2023-01-25T17:34:33.957Z,102529.16
2023-01-25T17:39:44.750Z,102517.06
2023-01-25T17:44:45.756Z,102488.19
2023-01-25T17:49:48.296Z,102483.97
2023-01-25T17:54:47.448Z,102474.38
2023-01-25T17:59:51.077Z,102493.91
2023-01-25T18:04:48.718Z,102471.75
2023-01-25T18:09:49.479Z,102466.13
2023-01-25T18:14:50.258Z,102482.50
2023-01-25T18:19:54.533Z,102450.28
2023-01-25T18:25:02.042Z,102484.13
2023-01-25T18:30:25.821Z,102495.06
2023-01-25T18:35:26.310Z,102476.53
2023-01-25T18:40:30.927Z,102466.94
2023-01-25T18:45:30.323Z,102451.91
2023-01-25T18:50:30.082Z,102446.78
2023-01-25T18:55:31.942Z,102451.63
2023-01-25T19:00:32.767Z,102456.59
2023-01-25T19:05:37.029Z,102465.88
2023-01-25T19:10:48.103Z,102445.75
2023-01-25T19:15:48.704Z,102422.91
2023-01-25T19:20:48.403Z,102446.56
2023-01-25T19:25:56.665Z,102414.25
2023-01-25T19:30:58.527Z,102431.25
2023-01-25T19:36:01.409Z,102418.31
2023-01-25T19:41:12.263Z,102411.22
2023-01-25T19:46:46.455Z,102433.44
2023-01-25T19:51:55.648Z,102429.41
2023-01-25T19:57:00.676Z,102407.06
2023-01-25T20:02:00.734Z,102424.69
2023-01-25T20:07:05.180Z,102385.44
2023-01-25T20:12:10.470Z,102373.16
2023-01-25T20:17:09.161Z,102407.34
2023-01-25T20:22:10.494Z,102380.88
2023-01-25T20:27:11.909Z,102393.38
2023-01-25T20:32:20.056Z,102375.50
2023-01-25T20:37:48.554Z,102364.09
2023-01-25T20:42:51.241Z,102407.09
2023-01-25T20:47:50.162Z,102390.53
2023-01-25T20:52:48.125Z,102346.69
2023-01-25T20:57:53.502Z,102345.41
2023-01-25T21:02:52.958Z,102358.94
2023-01-25T21:07:51.783Z,102379.22
2023-01-25T21:12:56.067Z,102376.38
2023-01-25T21:17:55.376Z,102354.25
2023-01-25T21:22:56.709Z,102348.72
2023-01-25T21:27:57.427Z,102377.19
2023-01-25T21:32:58.883Z,102369.09
2023-01-25T21:37:57.032Z,102331.22
2023-01-25T21:42:55.518Z,102339.88
2023-01-25T21:48:00.214Z,102358.56
2023-01-25T21:52:59.760Z,102357.28
2023-01-25T21:57:58.635Z,102320.59
2023-01-25T22:02:58.188Z,102314.47
2023-01-25T22:08:01.721Z,102308.88
2023-01-25T22:13:13.148Z,102355.06
2023-01-25T22:18:15.379Z,102305.38
2023-01-25T22:23:16.767Z,102313.31
2023-01-25T22:28:16.693Z,102306.09
2023-01-25T22:33:22.407Z,102284.22
2023-01-25T22:38:23.521Z,102285.97
2023-01-25T22:43:24.259Z,102289.28
2023-01-25T22:48:25.617Z,102268.13
2023-01-25T22:53:38.632Z,102296.94
2023-01-25T22:58:42.658Z,102290.50
2023-01-25T23:03:45.073Z,102259.53
2023-01-25T23:08:44.104Z,102256.56
2023-01-25T23:14:03.612Z,102248.88
2023-01-25T23:19:04.265Z,102220.91
2023-01-25T23:24:05.806Z,102248.97
2023-01-25T23:29:09.945Z,102242.59
2023-01-25T23:34:07.671Z,102232.25
2023-01-25T23:39:12.539Z,102247.72
2023-01-25T23:44:14.167Z,102227.19
2023-01-25T23:49:20.544Z,102196.63
2023-01-25T23:54:32.966Z,102212.53
2023-01-25T23:59:34.777Z,102204.47
